createdAt,value
2022-10-25T00:01:52.050Z,19.02
2022-10-25T00:06:49.874Z,19.55
2022-10-25T00:09:18.054Z,16.50
2022-10-25T00:11:46.318Z,17.90
2022-10-25T00:14:18.755Z,18.48
2022-10-25T00:16:47.095Z,17.40
2022-10-25T00:19:15.319Z,15.40
2022-10-25T00:21:44.865Z,16.98
2022-10-25T00:24:13.934Z,16.50
2022-10-25T00:26:42.854Z,16.60
2022-10-25T00:29:12.171Z,18.60
2022-10-25T00:31:40.440Z,18.40
2022-10-25T00:34:08.563Z,19.45
2022-10-25T00:36:36.712Z,20.95
2022-10-25T00:39:06.289Z,20.23
2022-10-25T00:41:36.218Z,21.23
2022-10-25T00:44:41.620Z,20.80
2022-10-25T00:47:18.975Z,20.85
2022-10-25T00:49:50.533Z,20.65
2022-10-25T00:52:18.768Z,19.77
2022-10-25T00:54:53.316Z,21.02
2022-10-25T00:57:26.284Z,19.50
2022-10-25T00:59:54.889Z,18.02
2022-10-25T01:02:24.363Z,21.00
2022-10-25T01:04:53.509Z,20.95
2022-10-25T01:07:21.700Z,19.92
2022-10-25T01:09:52.424Z,19.48
2022-10-25T01:12:20.569Z,18.83
2022-10-25T01:14:51.700Z,19.27
2022-10-25T01:17:25.858Z,19.10
2022-10-25T01:20:29.814Z,18.80
2022-10-25T01:23:08.978Z,18.80
2022-10-25T01:26:13.902Z,19.02
2022-10-25T01:28:55.756Z,20.65
2022-10-25T01:31:36.333Z,20.00
2022-10-25T01:34:12.274Z,22.52
2022-10-25T01:36:46.778Z,20.17
2022-10-25T01:39:21.869Z,21.13
2022-10-25T01:41:58.169Z,19.88
2022-10-25T01:47:09.686Z,20.48
2022-10-25T01:49:42.963Z,20.40
2022-10-25T01:52:11.118Z,21.17
2022-10-25T01:54:39.870Z,21.55
2022-10-25T01:57:44.190Z,21.95
2022-10-25T02:00:14.978Z,20.90
2022-10-25T02:02:59.781Z,20.85
2022-10-25T02:05:34.444Z,22.10
2022-10-25T02:08:09.026Z,21.75
2022-10-25T02:10:41.890Z,21.20
2022-10-25T02:13:17.890Z,21.98
2022-10-25T02:15:53.614Z,22.35
2022-10-25T02:18:27.237Z,20.60
2022-10-25T02:20:56.565Z,19.98
2022-10-25T02:23:26.177Z,21.65
2022-10-25T02:25:55.445Z,20.48
2022-10-25T02:28:28.270Z,22.00
2022-10-25T02:30:58.339Z,21.67
2022-10-25T02:33:28.107Z,22.17
2022-10-25T02:36:13.662Z,21.08
2022-10-25T02:38:42.905Z,20.27
2022-10-25T02:41:11.315Z,21.10
2022-10-25T02:43:39.458Z,22.90
2022-10-25T02:46:08.781Z,22.02
2022-10-25T02:48:38.674Z,22.85
2022-10-25T02:51:08.158Z,21.02
2022-10-25T02:53:37.111Z,20.73
2022-10-25T02:56:07.444Z,19.98
2022-10-25T02:58:38.491Z,20.30
2022-10-25T03:01:07.964Z,21.45
2022-10-25T03:03:36.586Z,21.27
2022-10-25T03:06:07.308Z,22.52
2022-10-25T03:08:35.747Z,21.65
2022-10-25T03:11:04.368Z,20.42
2022-10-25T03:13:32.599Z,21.00
2022-10-25T03:16:00.862Z,21.63
2022-10-25T03:18:29.095Z,21.05
2022-10-25T03:20:58.768Z,20.77
2022-10-25T03:23:28.809Z,20.33
2022-10-25T03:25:58.010Z,20.58
2022-10-25T03:28:27.491Z,19.70
2022-10-25T03:30:56.045Z,19.00
2022-10-25T03:33:24.679Z,21.15
2022-10-25T03:35:53.009Z,21.83
2022-10-25T03:38:21.229Z,21.88
2022-10-25T03:40:50.922Z,22.52
2022-10-25T03:43:19.064Z,22.00
2022-10-25T03:45:47.197Z,22.40
2022-10-25T03:48:15.332Z,20.40
2022-10-25T03:50:43.617Z,20.42
2022-10-25T03:53:12.350Z,20.75
2022-10-25T03:55:40.487Z,21.45
2022-10-25T03:58:10.104Z,21.75
2022-10-25T04:00:38.844Z,23.10
2022-10-25T04:05:40.222Z,21.88
2022-10-25T04:08:08.425Z,20.70
2022-10-25T04:10:36.648Z,21.08
2022-10-25T04:13:04.928Z,22.58
2022-10-25T04:15:34.508Z,21.80
2022-10-25T04:18:02.609Z,21.92
2022-10-25T04:20:30.736Z,22.00
2022-10-25T04:22:59.454Z,22.13
2022-10-25T04:25:29.802Z,21.73
2022-10-25T04:28:00.303Z,21.35
2022-10-25T04:30:28.501Z,21.17
2022-10-25T04:32:59.717Z,19.77
2022-10-25T04:35:27.858Z,21.38
2022-10-25T04:37:58.495Z,22.23
2022-10-25T04:40:26.676Z,20.85
2022-10-25T04:42:54.837Z,20.92
2022-10-25T04:45:22.966Z,20.83
2022-10-25T04:47:51.138Z,20.13
2022-10-25T04:50:20.885Z,20.10
2022-10-25T04:52:49.343Z,20.23
2022-10-25T04:55:17.737Z,20.42
2022-10-25T04:57:45.954Z,18.45
2022-10-25T05:00:15.070Z,18.98
2022-10-25T05:02:43.255Z,18.77
2022-10-25T05:05:11.438Z,20.30
2022-10-25T05:07:41.046Z,19.90
2022-10-25T05:10:09.781Z,19.33
2022-10-25T05:12:38.345Z,19.45
2022-10-25T05:15:07.611Z,20.70
2022-10-25T05:17:35.862Z,19.65
2022-10-25T05:20:04.328Z,21.85
2022-10-25T05:22:32.660Z,20.60
2022-10-25T05:25:02.190Z,21.10
2022-10-25T05:27:30.313Z,22.77
2022-10-25T05:29:58.427Z,21.45
2022-10-25T05:32:26.575Z,21.33
2022-10-25T05:34:54.688Z,23.30
2022-10-25T05:37:22.788Z,21.05
2022-10-25T05:39:50.972Z,21.80
2022-10-25T05:42:20.594Z,23.35
2022-10-25T05:44:48.778Z,22.10
2022-10-25T05:47:16.944Z,21.75
2022-10-25T05:49:45.073Z,20.95
2022-10-25T05:52:13.549Z,22.48
2022-10-25T05:54:41.682Z,22.85
2022-10-25T05:57:10.143Z,22.20
2022-10-25T05:59:39.717Z,22.08
2022-10-25T06:02:10.414Z,22.67
2022-10-25T06:04:38.627Z,22.45
2022-10-25T06:07:06.846Z,21.00
2022-10-25T06:09:35.026Z,23.48
2022-10-25T06:12:05.019Z,21.67
2022-10-25T06:14:35.670Z,22.42
2022-10-25T06:17:05.236Z,23.55
2022-10-25T06:19:33.376Z,23.88
2022-10-25T06:22:01.957Z,22.92
2022-10-25T06:24:30.101Z,24.08
2022-10-25T06:26:58.297Z,22.70
2022-10-25T06:29:26.551Z,23.30
2022-10-25T06:31:54.758Z,23.80
2022-10-25T06:34:24.404Z,24.05
2022-10-25T06:36:52.520Z,24.73
2022-10-25T06:39:20.842Z,24.38
2022-10-25T06:41:49.100Z,23.40
2022-10-25T06:44:17.427Z,24.15
2022-10-25T06:47:16.025Z,25.17
2022-10-25T06:49:35.362Z,25.55
2022-10-25T06:52:03.507Z,25.83
2022-10-25T06:54:31.780Z,26.02
2022-10-25T06:56:59.923Z,25.45
2022-10-25T06:59:28.112Z,26.45
2022-10-25T07:01:57.324Z,27.13
2022-10-25T07:04:25.704Z,27.92
2022-10-25T07:06:55.439Z,29.30
2022-10-25T07:09:23.903Z,29.90
2022-10-25T07:11:52.125Z,29.65
2022-10-25T07:14:20.374Z,29.88
2022-10-25T07:16:48.492Z,30.08
2022-10-25T07:19:16.657Z,31.42
2022-10-25T07:21:45.184Z,31.58
2022-10-25T07:24:14.992Z,30.70
2022-10-25T07:26:43.428Z,30.73
2022-10-25T07:29:11.804Z,30.33
2022-10-25T07:31:43.216Z,30.58
2022-10-25T07:34:13.416Z,30.42
2022-10-25T07:36:41.990Z,29.05
2022-10-25T07:39:10.333Z,28.92
2022-10-25T07:41:39.998Z,30.30
2022-10-25T07:44:12.979Z,28.60
2022-10-25T07:46:44.472Z,30.42
2022-10-25T07:49:12.858Z,29.83
2022-10-25T07:51:41.075Z,27.85
2022-10-25T07:54:09.494Z,27.00
2022-10-25T07:56:39.117Z,26.58
2022-10-25T07:59:07.385Z,26.20
2022-10-25T08:01:36.771Z,27.85
2022-10-25T08:04:05.291Z,26.75
2022-10-25T08:06:33.446Z,26.40
2022-10-25T08:09:09.757Z,25.83
2022-10-25T08:11:50.051Z,25.05
2022-10-25T08:14:18.248Z,25.67
2022-10-25T08:16:46.548Z,25.77
2022-10-25T08:19:14.782Z,25.83
2022-10-25T08:21:43.652Z,23.95
2022-10-25T08:24:12.130Z,25.10
2022-10-25T08:26:40.296Z,24.77
2022-10-25T08:29:09.976Z,25.63
2022-10-25T08:31:38.128Z,26.40
2022-10-25T08:34:06.350Z,24.85
2022-10-25T08:36:34.632Z,25.70
2022-10-25T08:39:02.832Z,25.80
2022-10-25T08:41:44.318Z,25.33
2022-10-25T08:44:20.258Z,24.92
2022-10-25T08:47:00.397Z,25.33
2022-10-25T08:49:35.544Z,24.77
2022-10-25T08:52:06.277Z,25.90
2022-10-25T08:54:38.805Z,25.92
2022-10-25T08:57:16.355Z,27.00
2022-10-25T08:59:50.890Z,28.25
2022-10-25T09:02:24.958Z,28.52
2022-10-25T09:04:54.003Z,26.15
2022-10-25T09:07:50.440Z,26.60
2022-10-25T09:10:30.987Z,25.70
2022-10-25T09:13:09.810Z,25.20
2022-10-25T09:15:54.727Z,25.88
2022-10-25T09:18:31.767Z,24.25
2022-10-25T09:21:07.661Z,24.10
2022-10-25T09:23:38.524Z,22.42
2022-10-25T09:26:18.774Z,22.05
2022-10-25T09:28:53.224Z,22.88
2022-10-25T09:31:24.704Z,22.80
2022-10-25T09:34:01.611Z,22.80
2022-10-25T09:36:38.213Z,20.63
2022-10-25T09:39:16.554Z,20.92
2022-10-25T09:41:47.867Z,20.13
2022-10-25T09:44:26.656Z,20.02
2022-10-25T09:46:59.454Z,19.13
2022-10-25T09:49:34.140Z,16.95
2022-10-25T09:52:08.296Z,19.23
2022-10-25T09:54:41.206Z,18.50
2022-10-25T09:57:09.607Z,17.83
2022-10-25T09:59:37.859Z,16.23
2022-10-25T10:02:11.530Z,16.50
2022-10-25T10:04:40.456Z,16.50
2022-10-25T10:07:15.470Z,14.73
2022-10-25T10:09:46.053Z,15.05
2022-10-25T10:12:21.530Z,14.80
2022-10-25T10:14:57.314Z,15.60
2022-10-25T10:17:28.489Z,14.70
2022-10-25T10:20:15.329Z,15.02
2022-10-25T10:25:27.984Z,14.90
2022-10-25T10:27:58.409Z,14.02
2022-10-25T10:30:29.847Z,13.98
2022-10-25T10:33:01.842Z,14.90
2022-10-25T10:35:33.658Z,13.95
2022-10-25T10:38:22.399Z,14.02
2022-10-25T10:40:51.887Z,14.68
2022-10-25T10:43:30.852Z,15.38
2022-10-25T10:46:04.458Z,14.13
2022-10-25T10:48:41.928Z,14.70
2022-10-25T10:51:31.601Z,14.43
2022-10-25T10:54:12.805Z,15.05
2022-10-25T10:56:41.197Z,14.00
2022-10-25T10:59:27.938Z,14.52
2022-10-25T11:01:56.981Z,12.85
2022-10-25T11:04:26.641Z,12.40
2022-10-25T11:06:54.891Z,12.30
2022-10-25T11:09:26.926Z,10.57
2022-10-25T11:12:11.890Z,10.50
2022-10-25T11:14:40.080Z,10.07
2022-10-25T11:17:13.523Z,11.95
2022-10-25T11:20:03.571Z,11.20
2022-10-25T11:22:48.400Z,10.75
2022-10-25T11:25:25.547Z,11.32
2022-10-25T11:28:07.488Z,9.60
2022-10-25T11:30:41.802Z,8.48
2022-10-25T11:33:38.703Z,8.18
2022-10-25T11:36:46.290Z,8.38
2022-10-25T11:39:28.566Z,8.55
2022-10-25T11:42:04.923Z,7.63
2022-10-25T11:44:50.220Z,7.85
2022-10-25T11:47:29.962Z,7.65
2022-10-25T11:50:11.827Z,8.02
2022-10-25T11:52:59.212Z,8.13
2022-10-25T11:55:35.852Z,8.70
2022-10-25T11:58:19.369Z,7.10
2022-10-25T12:00:57.352Z,8.23
2022-10-25T12:03:43.564Z,8.45
2022-10-25T12:06:23.092Z,7.43
2022-10-25T12:09:03.046Z,8.77
2022-10-25T12:11:34.952Z,7.70
2022-10-25T12:14:08.435Z,8.40
2022-10-25T12:16:37.619Z,9.00
2022-10-25T12:19:12.454Z,9.95
2022-10-25T12:21:46.089Z,8.88
2022-10-25T12:24:21.729Z,8.32
2022-10-25T12:26:53.989Z,8.43
2022-10-25T12:29:26.297Z,9.15
2022-10-25T12:32:00.381Z,8.50
2022-10-25T12:34:43.104Z,9.75
2022-10-25T12:37:19.096Z,8.70
2022-10-25T12:39:49.133Z,8.00
2022-10-25T12:42:21.466Z,8.55
2022-10-25T12:45:18.688Z,8.45
2022-10-25T12:47:59.006Z,8.63
2022-10-25T12:50:50.373Z,8.32
2022-10-25T12:53:49.094Z,7.55
2022-10-25T12:56:30.695Z,7.32
2022-10-25T12:59:08.962Z,8.00
2022-10-25T13:01:51.270Z,7.57
2022-10-25T13:04:33.164Z,8.02
2022-10-25T13:07:04.237Z,7.78
2022-10-25T13:09:35.092Z,8.43
2022-10-25T13:12:08.327Z,7.28
2022-10-25T13:14:39.630Z,6.90
2022-10-25T13:17:48.381Z,7.53
2022-10-25T13:20:48.582Z,7.35
2022-10-25T13:24:00.420Z,7.15
2022-10-25T13:26:54.333Z,7.18
2022-10-25T13:29:47.786Z,8.07
2022-10-25T13:32:23.036Z,7.18
2022-10-25T13:34:51.194Z,8.05
2022-10-25T13:37:45.562Z,7.20
2022-10-25T13:40:28.478Z,7.03
2022-10-25T13:43:02.867Z,6.90
2022-10-25T13:45:38.816Z,7.05
2022-10-25T13:48:29.684Z,6.78
2022-10-25T13:51:00.629Z,7.55
2022-10-25T13:53:37.761Z,6.80
2022-10-25T13:56:08.323Z,7.35
2022-10-25T13:58:48.680Z,6.95
2022-10-25T14:01:54.532Z,7.53
2022-10-25T14:04:35.243Z,7.07
2022-10-25T14:07:40.779Z,7.50
2022-10-25T14:10:16.997Z,6.10
2022-10-25T14:12:49.587Z,5.90
2022-10-25T14:15:25.664Z,6.78
2022-10-25T14:17:54.510Z,6.93
2022-10-25T14:20:28.803Z,5.72
2022-10-25T14:23:01.753Z,6.13
2022-10-25T14:25:35.423Z,6.07
2022-10-25T14:28:09.075Z,5.03
2022-10-25T14:30:41.158Z,5.38
2022-10-25T14:33:32.262Z,5.50
2022-10-25T14:36:11.882Z,6.22
2022-10-25T14:38:54.101Z,5.18
2022-10-25T14:41:24.551Z,5.28
2022-10-25T14:43:53.385Z,5.82
2022-10-25T14:46:22.869Z,5.95
2022-10-25T14:48:55.247Z,5.57
2022-10-25T14:51:28.141Z,6.38
2022-10-25T14:53:59.781Z,5.68
2022-10-25T14:56:31.398Z,5.72
2022-10-25T14:59:00.894Z,5.05
2022-10-25T15:01:29.682Z,5.65
2022-10-25T15:04:01.347Z,5.55
2022-10-25T15:06:33.346Z,5.50
2022-10-25T15:12:09.056Z,5.18
2022-10-25T15:14:37.646Z,5.70
2022-10-25T15:17:06.698Z,6.13
2022-10-25T15:22:31.724Z,6.68
2022-10-25T15:24:59.957Z,6.88
2022-10-25T15:27:35.219Z,6.72
2022-10-25T15:30:05.045Z,6.68
2022-10-25T15:32:34.328Z,6.70
2022-10-25T15:35:04.064Z,7.35
2022-10-25T15:37:33.598Z,7.10
2022-10-25T15:40:01.797Z,7.32
2022-10-25T15:42:30.014Z,7.55
2022-10-25T15:44:58.402Z,6.75
2022-10-25T15:47:32.266Z,7.13
2022-10-25T15:50:02.943Z,7.30
2022-10-25T15:52:31.260Z,7.60
2022-10-25T15:55:00.868Z,8.00
2022-10-25T15:57:29.156Z,7.72
2022-10-25T15:59:57.346Z,7.35
2022-10-25T16:02:28.668Z,6.60
2022-10-25T16:04:56.940Z,7.22
2022-10-25T16:07:25.308Z,6.18
2022-10-25T16:09:53.448Z,6.05
2022-10-25T16:12:28.442Z,5.38
2022-10-25T16:14:56.658Z,5.97
2022-10-25T16:17:24.785Z,5.80
2022-10-25T16:19:53.028Z,5.88
2022-10-25T16:22:21.150Z,6.45
2022-10-25T16:24:49.291Z,7.55
2022-10-25T16:27:17.590Z,6.57
2022-10-25T16:29:47.204Z,8.30
2022-10-25T16:32:15.379Z,7.43
2022-10-25T16:34:46.042Z,8.43
2022-10-25T16:37:14.213Z,7.35
2022-10-25T16:39:42.369Z,6.75
2022-10-25T16:42:28.940Z,6.35
2022-10-25T16:44:59.326Z,6.82
2022-10-25T16:47:27.689Z,7.38
2022-10-25T16:49:56.135Z,7.80
2022-10-25T16:52:24.265Z,7.75
2022-10-25T16:54:52.500Z,8.50
2022-10-25T16:57:20.614Z,8.27
2022-10-25T16:59:48.866Z,8.65
2022-10-25T17:02:21.026Z,8.63
2022-10-25T17:04:50.268Z,7.30
2022-10-25T17:07:18.785Z,7.53
2022-10-25T17:09:49.424Z,7.65
2022-10-25T17:12:17.633Z,6.80
2022-10-25T17:14:45.868Z,6.25
2022-10-25T17:17:15.240Z,6.25
2022-10-25T17:19:44.804Z,5.85
2022-10-25T17:22:12.927Z,6.35
2022-10-25T17:24:41.030Z,5.82
2022-10-25T17:27:09.260Z,5.95
2022-10-25T17:29:37.412Z,7.00
2022-10-25T17:32:06.012Z,6.22
2022-10-25T17:34:34.190Z,6.32
2022-10-25T17:37:03.872Z,6.85
2022-10-25T17:39:32.090Z,6.57
2022-10-25T17:42:00.396Z,6.40
2022-10-25T17:44:28.562Z,5.72
2022-10-25T17:46:58.481Z,6.53
2022-10-25T17:49:29.270Z,6.97
2022-10-25T17:51:57.421Z,6.63
2022-10-25T17:54:27.223Z,6.97
2022-10-25T17:56:58.615Z,7.00
2022-10-25T17:59:35.848Z,6.80
2022-10-25T18:02:04.563Z,7.70
2022-10-25T18:04:46.901Z,7.63
2022-10-25T18:07:24.010Z,7.63
2022-10-25T18:09:53.655Z,7.50
2022-10-25T18:12:21.870Z,6.97
2022-10-25T18:14:55.455Z,6.30
2022-10-25T18:17:28.712Z,6.50
2022-10-25T18:19:56.881Z,6.30
2022-10-25T18:22:25.184Z,7.40
2022-10-25T18:24:54.999Z,6.70
2022-10-25T18:27:23.346Z,6.25
2022-10-25T18:29:51.536Z,7.38
2022-10-25T18:32:19.860Z,6.72
2022-10-25T18:34:48.109Z,6.45
2022-10-25T18:37:16.321Z,7.10
2022-10-25T18:39:44.494Z,6.95
2022-10-25T18:42:14.077Z,6.22
2022-10-25T18:44:43.083Z,7.15
2022-10-25T18:47:11.494Z,6.93
2022-10-25T18:49:40.102Z,7.57
2022-10-25T18:52:09.238Z,6.82
2022-10-25T18:54:37.509Z,7.82
2022-10-25T18:57:05.946Z,6.80
2022-10-25T18:59:35.623Z,6.38
2022-10-25T19:02:03.980Z,6.93
2022-10-25T19:04:32.303Z,6.47
2022-10-25T19:07:00.525Z,6.97
2022-10-25T19:09:28.786Z,6.72
2022-10-25T19:11:57.127Z,7.25
2022-10-25T19:14:25.452Z,7.30
2022-10-25T19:16:56.174Z,6.25
2022-10-25T19:19:25.065Z,6.50
2022-10-25T19:21:53.338Z,7.85
2022-10-25T19:24:46.587Z,7.25
2022-10-25T19:27:14.854Z,7.72
2022-10-25T19:29:44.159Z,6.80
2022-10-25T19:32:13.873Z,7.25
2022-10-25T19:34:42.271Z,7.53
2022-10-25T19:37:11.297Z,6.90
2022-10-25T19:39:40.844Z,8.10
2022-10-25T19:42:11.438Z,6.90
2022-10-25T19:44:39.732Z,7.38
2022-10-25T19:47:11.482Z,7.60
2022-10-25T19:49:41.158Z,7.75
2022-10-25T19:52:09.450Z,6.78
2022-10-25T19:54:37.801Z,7.47
2022-10-25T19:57:06.493Z,7.28
2022-10-25T19:59:34.853Z,9.32
2022-10-25T20:02:03.844Z,7.85
2022-10-25T20:04:39.526Z,7.95
2022-10-25T20:07:09.441Z,8.57
2022-10-25T20:09:39.981Z,8.15
2022-10-25T20:12:11.053Z,8.18
2022-10-25T20:14:39.310Z,7.50
2022-10-25T20:17:08.780Z,8.27
2022-10-25T20:19:37.023Z,7.65
2022-10-25T20:22:06.162Z,7.75
2022-10-25T20:24:35.840Z,8.10
2022-10-25T20:27:04.059Z,7.80
2022-10-25T20:29:32.262Z,8.38
2022-10-25T20:32:00.497Z,8.32
2022-10-25T20:34:28.684Z,7.80
2022-10-25T20:36:56.817Z,8.32
2022-10-25T20:39:25.007Z,7.47
2022-10-25T20:41:54.639Z,8.10
2022-10-25T20:44:23.622Z,8.18
2022-10-25T20:46:51.808Z,7.55
2022-10-25T20:49:21.186Z,7.88
2022-10-25T20:51:49.808Z,7.70
2022-10-25T20:54:18.060Z,8.43
2022-10-25T20:56:46.213Z,8.25
2022-10-25T20:59:15.769Z,7.15
2022-10-25T21:01:44.162Z,6.90
2022-10-25T21:04:14.339Z,8.73
2022-10-25T21:06:44.415Z,7.30
2022-10-25T21:09:12.586Z,7.57
2022-10-25T21:11:40.722Z,7.93
2022-10-25T21:14:11.551Z,7.10
2022-10-25T21:16:41.114Z,7.90
2022-10-25T21:19:09.407Z,8.07
2022-10-25T21:21:37.717Z,7.85
2022-10-25T21:24:06.240Z,8.45
2022-10-25T21:26:34.763Z,7.80
2022-10-25T21:29:03.289Z,8.77
2022-10-25T21:31:31.498Z,8.60
2022-10-25T21:34:01.232Z,8.75
2022-10-25T21:36:29.468Z,9.20
2022-10-25T21:38:57.997Z,9.90
2022-10-25T21:41:27.594Z,9.65
2022-10-25T21:43:56.946Z,9.13
2022-10-25T21:46:27.308Z,8.45
2022-10-25T21:48:55.964Z,9.15
2022-10-25T21:51:25.839Z,8.20
2022-10-25T21:53:54.847Z,9.95
2022-10-25T21:56:30.695Z,9.25
2022-10-25T21:59:00.706Z,9.00
2022-10-25T22:01:30.966Z,9.27
2022-10-25T22:03:59.371Z,8.90
2022-10-25T22:06:29.417Z,9.35
2022-10-25T22:08:58.251Z,10.73
2022-10-25T22:11:27.992Z,10.57
2022-10-25T22:13:57.192Z,9.63
2022-10-25T22:16:26.079Z,10.52
2022-10-25T22:18:57.719Z,10.30
2022-10-25T22:21:28.951Z,8.82
2022-10-25T22:23:57.296Z,8.40
2022-10-25T22:26:25.646Z,9.00
2022-10-25T22:28:54.585Z,10.23
2022-10-25T22:31:23.487Z,9.45
2022-10-25T22:33:54.918Z,8.73
2022-10-25T22:36:24.571Z,8.18
2022-10-25T22:38:54.480Z,8.15
2022-10-25T22:41:25.032Z,8.65
2022-10-25T22:43:53.338Z,8.20
2022-10-25T22:46:25.189Z,7.03
2022-10-25T22:48:55.207Z,7.47
2022-10-25T22:51:24.408Z,8.63
2022-10-25T22:53:54.159Z,9.10
2022-10-25T22:56:23.874Z,9.55
2022-10-25T22:58:53.791Z,12.85
2022-10-25T23:01:24.172Z,13.18
2022-10-25T23:03:54.506Z,12.93
2022-10-25T23:06:25.006Z,11.40
2022-10-25T23:08:55.402Z,12.07
2022-10-25T23:11:25.514Z,12.32
2022-10-25T23:13:54.017Z,14.07
2022-10-25T23:16:22.270Z,14.75
2022-10-25T23:18:51.015Z,14.25
2022-10-25T23:21:20.834Z,16.33
2022-10-25T23:23:49.272Z,15.13
2022-10-25T23:26:23.484Z,15.10
2022-10-25T23:28:52.170Z,16.13
2022-10-25T23:31:20.570Z,14.35
2022-10-25T23:33:52.334Z,14.52
2022-10-25T23:36:22.154Z,15.27
2022-10-25T23:38:52.206Z,15.18
2022-10-25T23:41:22.914Z,15.23
2022-10-25T23:43:51.421Z,15.95
2022-10-25T23:46:20.130Z,16.58
2022-10-25T23:48:48.872Z,16.45
2022-10-25T23:51:19.356Z,17.92
2022-10-25T23:53:48.653Z,17.77
2022-10-25T23:56:17.224Z,18.60
2022-10-25T23:58:50.521Z,18.77
